Time;durP1;ratioP1;P1;durP2;ratioP2;P2;SDS_P1;SDS_P2;PMS_P1;PMS_P2;Temp;Humidity;BMP_temperature;BMP_pressure;BME280_temperature;BME280_humidity;BME280_pressure;Samples;Min_cycle;Max_cycle;Signal;HPM_P1;HPM_P2
2023/07/16 00:01:42;;;;;;;18.70;17.55;;;;;;;12.45;100.00;99732.75;5061043;28;20033;-85
2023/07/16 00:04:17;;;;;;;21.98;20.63;;;;;;;12.45;100.00;99726.56;5038904;28;20029;-89
2023/07/16 00:06:45;;;;;;;19.45;18.20;;;;;;;12.46;100.00;99726.34;5057504;28;20082;-91
2023/07/16 00:09:11;;;;;;;17.02;15.98;;;;;;;12.45;100.00;99730.06;5039155;28;20045;-87
2023/07/16 00:11:37;;;;;;;17.58;16.40;;;;;;;12.45;100.00;99726.56;5057558;28;20033;-86
2023/07/16 00:14:08;;;;;;;16.08;15.10;;;;;;;12.48;100.00;99728.81;5055775;28;20086;-89
2023/07/16 00:16:34;;;;;;;15.65;14.70;;;;;;;12.41;100.00;99719.91;5022777;28;20463;-92
2023/07/16 00:19:00;;;;;;;16.25;15.30;;;;;;;12.37;100.00;99711.44;5054393;28;20064;-86
2023/07/16 00:21:26;;;;;;;17.17;16.10;;;;;;;12.41;100.00;99711.81;5055003;28;20036;-87
2023/07/16 00:23:59;;;;;;;18.13;16.95;;;;;;;12.42;100.00;99732.38;5055390;28;20029;-86
2023/07/16 00:26:27;;;;;;;16.10;15.10;;;;;;;12.41;100.00;99734.25;5021410;28;20033;-86
2023/07/16 00:28:57;;;;;;;10.85;10.23;;;;;;;12.32;100.00;99719.34;5054398;28;20084;-90
2023/07/16 00:31:23;;;;;;;10.25;9.70;;;;;;;12.40;100.00;99750.63;5021738;28;20033;-88
2023/07/16 00:33:48;;;;;;;11.18;10.55;;;;;;;12.28;100.00;99735.13;5055970;28;20029;-89
2023/07/16 00:36:19;;;;;;;9.52;8.98;;;;;;;12.17;100.00;99727.69;5038270;28;20041;-89
2023/07/16 00:38:45;;;;;;;8.10;7.68;;;;;;;12.23;100.00;99736.78;5021644;28;20386;-86
2023/07/16 00:41:13;;;;;;;7.57;7.15;;;;;;;12.25;100.00;99743.63;5038210;28;20033;-88
2023/07/16 00:43:38;;;;;;;7.05;6.63;;;;;;;12.32;100.00;99747.09;5021364;28;20044;-89
2023/07/16 00:46:04;;;;;;;6.30;5.97;;;;;;;12.34;100.00;99749.59;5037235;28;20037;-89
2023/07/16 00:48:35;;;;;;;6.70;6.35;;;;;;;12.40;100.00;99759.53;5036908;28;20073;-86
2023/07/16 00:51:05;;;;;;;6.55;6.13;;;;;;;12.35;100.00;99763.91;5038752;28;20361;-88
2023/07/16 00:53:34;;;;;;;7.50;7.05;;;;;;;12.34;100.00;99762.25;5036784;28;20479;-85
2023/07/16 00:56:00;;;;;;;7.40;6.97;;;;;;;12.33;100.00;99774.88;5053796;28;20025;-87
2023/07/16 00:58:28;;;;;;;9.00;8.45;;;;;;;12.28;100.00;99775.53;5037086;28;20119;-88
2023/07/16 01:00:56;;;;;;;10.63;10.02;;;;;;;12.25;100.00;99769.72;5053676;28;20025;-85
2023/07/16 01:03:25;;;;;;;14.30;13.45;;;;;;;12.15;100.00;99762.09;5037188;28;20418;-85
2023/07/16 01:06:09;;;;;;;13.40;12.60;;;;;;;12.26;100.00;99774.91;5070361;28;20029;-88
2023/07/16 01:08:41;;;;;;;13.70;12.90;;;;;;;12.18;100.00;99767.06;5053680;28;20032;-88
2023/07/16 01:11:15;;;;;;;16.08;15.10;;;;;;;12.15;100.00;99767.50;5102384;27;20355;-85
2023/07/16 01:13:41;;;;;;;15.95;15.00;;;;;;;12.22;100.00;99779.06;5088455;28;20459;-84
2023/07/16 01:16:09;;;;;;;16.73;15.70;;;;;;;12.24;100.00;99778.88;5089167;28;20047;-87
2023/07/16 01:19:02;;;;;;;19.42;18.20;;;;;;;12.21;100.00;99776.59;5090826;28;20047;-83
2023/07/16 01:21:47;;;;;;;19.65;18.35;;;;;;;12.16;100.00;99771.81;5090532;28;20037;-86
2023/07/16 01:24:37;;;;;;;23.27;21.73;;;;;;;12.23;100.00;99785.31;5089634;28;20032;-90
2023/07/16 01:27:17;;;;;;;18.23;17.05;;;;;;;12.22;100.00;99780.94;5090820;28;20047;-87
2023/07/16 01:29:52;;;;;;;16.83;15.82;;;;;;;12.13;100.00;99769.56;5056682;28;20063;-89
2023/07/16 01:32:30;;;;;;;16.77;15.75;;;;;;;12.22;100.00;99787.16;5056502;28;20038;-90
2023/07/16 01:34:56;;;;;;;15.68;14.70;;;;;;;12.23;100.00;99790.69;5054761;28;20127;-93
2023/07/16 01:37:22;;;;;;;15.02;14.07;;;;;;;12.16;100.00;99777.22;5072177;28;20070;-89
2023/07/16 01:39:53;;;;;;;12.95;12.20;;;;;;;12.23;100.00;99788.00;5072543;28;20032;-86
2023/07/16 01:42:46;;;;;;;16.27;15.23;;;;;;;12.19;100.00;99795.66;5067600;28;20115;-89
2023/07/16 01:45:14;;;;;;;13.18;12.43;;;;;;;12.15;100.00;99786.34;5089998;28;20036;-84
2023/07/16 01:47:58;;;;;;;13.40;12.60;;;;;;;12.09;100.00;99776.38;5073054;28;20028;-88
2023/07/16 01:50:24;;;;;;;15.45;14.35;;;;;;;12.16;100.00;99806.03;5072534;28;20112;-85
2023/07/16 01:52:54;;;;;;;15.20;14.30;;;;;;;12.18;100.00;99810.19;5072715;28;20458;-87
2023/07/16 01:55:23;;;;;;;17.52;16.42;;;;;;;11.99;100.00;99778.72;5056352;28;20111;-86
2023/07/16 01:57:52;;;;;;;15.55;14.65;;;;;;;12.17;100.00;99802.28;5056222;28;20036;-87
2023/07/16 02:00:22;;;;;;;15.13;14.20;;;;;;;12.16;100.00;99808.72;5054852;28;20043;-89
2023/07/16 02:02:47;;;;;;;15.80;14.85;;;;;;;12.15;100.00;99818.69;5081482;28;20032;-88
2023/07/16 02:05:21;;;;;;;15.07;14.15;;;;;;;12.11;100.00;99809.34;5091212;28;20516;-87
2023/07/16 02:07:49;;;;;;;20.23;18.98;;;;;;;11.95;100.00;99788.22;5090363;28;20115;-86
2023/07/16 02:10:15;;;;;;;14.68;13.82;;;;;;;12.15;100.00;99826.78;5073265;28;20127;-86
2023/07/16 02:12:40;;;;;;;15.10;13.98;;;;;;;12.06;100.00;99809.16;5073420;28;20508;-85
2023/07/16 02:15:06;;;;;;;11.60;10.95;;;;;;;12.19;100.00;99827.19;5071927;28;20040;-85
2023/07/16 02:17:35;;;;;;;13.77;12.93;;;;;;;12.23;100.00;99825.72;5072037;28;20139;-88
2023/07/16 02:20:06;;;;;;;14.43;13.57;;;;;;;12.22;100.00;99824.88;5072040;28;20453;-87
2023/07/16 02:22:35;;;;;;;14.30;13.45;;;;;;;12.22;100.00;99822.19;5059366;28;20029;-88
2023/07/16 02:25:05;;;;;;;11.80;11.15;;;;;;;12.18;100.00;99818.25;5058981;28;20028;-86
2023/07/16 02:27:37;;;;;;;13.88;13.02;;;;;;;12.16;100.00;99817.63;5075856;28;20089;-86
2023/07/16 02:30:06;;;;;;;13.65;12.85;;;;;;;12.21;100.00;99820.53;5073878;28;20082;-89
2023/07/16 02:32:38;;;;;;;12.48;11.73;;;;;;;12.19;100.00;99819.09;5059012;28;20033;-85
2023/07/16 02:35:16;;;;;;;11.57;10.85;;;;;;;12.22;100.00;99824.06;5042645;28;20037;-85
2023/07/16 02:37:41;;;;;;;11.82;11.13;;;;;;;12.20;100.00;99820.72;5042445;28;20139;-87
2023/07/16 02:40:07;;;;;;;9.73;9.18;;;;;;;12.08;100.00;99816.00;5037728;28;20123;-88
2023/07/16 02:42:36;;;;;;;10.77;10.15;;;;;;;12.05;100.00;99820.97;5038954;28;20463;-86
2023/07/16 02:45:02;;;;;;;10.80;10.15;;;;;;;12.02;100.00;99837.56;5054955;28;20061;-87
2023/07/16 02:47:27;;;;;;;11.43;10.63;;;;;;;11.94;100.00;99827.81;5044285;28;20079;-88
2023/07/16 02:49:53;;;;;;;13.10;12.15;;;;;;;11.79;100.00;99821.78;5073904;28;20039;-84
2023/07/16 02:52:21;;;;;;;11.00;10.35;;;;;;;11.69;100.00;99806.00;5074890;28;20035;-86
2023/07/16 02:54:49;;;;;;;11.40;10.73;;;;;;;11.75;100.00;99826.75;5058843;28;20111;-83
2023/07/16 02:57:18;;;;;;;10.75;9.95;;;;;;;11.75;100.00;99834.84;5057555;28;20036;-86
2023/07/16 02:59:46;;;;;;;9.77;9.23;;;;;;;11.69;100.00;99821.34;5037324;28;20025;-86
2023/07/16 03:02:15;;;;;;;10.88;10.25;;;;;;;11.68;100.00;99825.09;5022579;28;20162;-84
2023/07/16 03:04:46;;;;;;;11.88;11.18;;;;;;;11.69;100.00;99829.44;5054837;28;20494;-86
2023/07/16 03:07:12;;;;;;;13.25;12.35;;;;;;;11.70;100.00;99844.56;5068928;28;20356;-88
2023/07/16 03:09:40;;;;;;;14.77;13.65;;;;;;;11.72;100.00;99853.25;5041148;28;20032;-88
2023/07/16 03:12:09;;;;;;;13.40;12.55;;;;;;;11.78;100.00;99847.06;5074241;28;20101;-85
2023/07/16 03:14:38;;;;;;;12.07;11.38;;;;;;;11.85;100.00;99861.34;5041371;28;20055;-86
2023/07/16 03:17:07;;;;;;;10.73;10.10;;;;;;;11.86;100.00;99861.19;5073688;28;20033;-86
2023/07/16 03:19:38;;;;;;;10.50;9.93;;;;;;;11.65;100.00;99826.31;5054177;28;20041;-87
2023/07/16 03:22:06;;;;;;;9.88;9.23;;;;;;;11.73;100.00;99838.75;5038145;28;20071;-84
2023/07/16 03:24:35;;;;;;;12.45;11.68;;;;;;;11.85;100.00;99864.88;5054298;28;20032;-87
2023/07/16 03:27:07;;;;;;;10.68;10.05;;;;;;;11.82;100.00;99859.88;5051287;28;20037;-85
2023/07/16 03:29:33;;;;;;;10.65;10.02;;;;;;;11.84;100.00;99865.91;5056681;28;20041;-84
2023/07/16 03:32:02;;;;;;;8.32;7.88;;;;;;;11.88;100.00;99880.66;5024254;28;20037;-85
2023/07/16 03:34:28;;;;;;;9.98;9.40;;;;;;;11.87;100.00;99888.94;5072178;28;20074;-86
2023/07/16 03:36:54;;;;;;;8.85;8.38;;;;;;;11.81;100.00;99890.56;5073099;28;20040;-87
2023/07/16 03:39:19;;;;;;;9.02;8.55;;;;;;;11.68;100.00;99866.31;5073948;28;20043;-89
2023/07/16 03:41:48;;;;;;;8.45;7.97;;;;;;;11.81;100.00;99893.25;5072948;28;20039;-86
2023/07/16 03:44:17;;;;;;;7.63;7.22;;;;;;;11.82;100.00;99896.75;5074121;28;20031;-85
2023/07/16 03:46:42;;;;;;;8.52;8.07;;;;;;;11.61;100.00;99857.38;5057449;28;20036;-86
2023/07/16 03:49:10;;;;;;;8.25;7.78;;;;;;;11.78;100.00;99899.06;5056234;28;20040;-85
2023/07/16 03:51:39;;;;;;;8.70;8.18;;;;;;;11.74;100.00;99897.78;5056406;28;20314;-87
2023/07/16 03:54:04;;;;;;;6.57;6.20;;;;;;;11.66;100.00;99893.41;5074600;28;20062;-88
2023/07/16 03:56:31;;;;;;;5.82;5.45;;;;;;;11.72;100.00;99915.19;5073730;28;20036;-84
2023/07/16 03:58:56;;;;;;;4.47;4.28;;;;;;;11.72;100.00;99913.31;5073069;28;20036;-88
2023/07/16 04:01:25;;;;;;;4.43;4.22;;;;;;;11.72;100.00;99921.38;5073684;28;20441;-90
2023/07/16 04:03:53;;;;;;;5.57;5.25;;;;;;;11.71;100.00;99922.44;5039961;28;20542;-88
2023/07/16 04:06:25;;;;;;;5.40;5.07;;;;;;;11.62;100.00;99915.59;5057128;28;20032;-86
2023/07/16 04:09:02;;;;;;;5.78;5.40;;;;;;;11.67;100.00;99921.19;5072303;28;20026;-90
2023/07/16 04:11:28;;;;;;;6.07;5.75;;;;;;;11.60;100.00;99923.88;5041152;28;20044;-84
2023/07/16 04:13:53;;;;;;;4.93;4.70;;;;;;;11.53;100.00;99909.53;5056417;28;20063;-90
2023/07/16 04:16:21;;;;;;;4.80;4.57;;;;;;;11.66;100.00;99935.69;5074180;28;20063;-86
2023/07/16 04:18:54;;;;;;;4.80;4.57;;;;;;;11.63;100.00;99928.00;5056044;28;20047;-88
2023/07/16 04:21:22;;;;;;;8.68;8.20;;;;;;;11.58;100.00;99930.47;5057364;28;20043;-84
2023/07/16 04:23:49;;;;;;;7.57;7.05;;;;;;;11.65;100.00;99939.41;5073003;28;20029;-88
2023/07/16 04:26:17;;;;;;;6.80;6.43;;;;;;;11.62;100.00;99940.66;5073374;28;20158;-91
2023/07/16 04:28:42;;;;;;;6.70;6.32;;;;;;;11.57;100.00;99929.66;5073260;28;20115;-86
2023/07/16 04:31:10;;;;;;;5.53;5.25;;;;;;;11.65;100.00;99936.72;5071851;28;20054;-89
2023/07/16 04:33:37;;;;;;;6.30;5.93;;;;;;;11.66;100.00;99936.50;5055761;28;20036;-90
2023/07/16 04:36:08;;;;;;;6.35;5.97;;;;;;;11.58;100.00;99928.63;5057034;28;20056;-88
2023/07/16 04:38:34;;;;;;;5.03;4.75;;;;;;;11.57;100.00;99937.72;5074521;28;20367;-91
2023/07/16 04:41:02;;;;;;;5.40;5.07;;;;;;;11.61;100.00;99948.91;5072215;28;20493;-91
2023/07/16 04:43:31;;;;;;;6.53;5.97;;;;;;;11.52;100.00;99939.38;5052437;28;20033;-94
2023/07/16 04:45:59;;;;;;;6.28;5.93;;;;;;;11.41;100.00;99930.03;5052814;28;20116;-86
2023/07/16 04:48:28;;;;;;;5.80;5.47;;;;;;;11.45;100.00;99950.94;5036614;28;20063;-88
2023/07/16 04:50:53;;;;;;;6.20;5.88;;;;;;;11.36;100.00;99943.25;5057966;28;20030;-89
2023/07/16 04:53:25;;;;;;;7.30;6.75;;;;;;;11.42;100.00;99959.41;5072567;28;20036;-91
2023/07/16 04:55:57;;;;;;;7.10;6.70;;;;;;;11.41;100.00;99965.03;5057247;28;20036;-91
2023/07/16 04:58:25;;;;;;;8.27;7.85;;;;;;;11.39;100.00;99957.13;5056540;28;20049;-86
2023/07/16 05:00:51;;;;;;;9.95;9.27;;;;;;;11.49;100.00;99966.72;5054871;28;20064;-88
2023/07/16 05:03:17;;;;;;;7.97;7.50;;;;;;;11.50;100.00;99966.50;5056040;28;20086;-89
2023/07/16 05:05:47;;;;;;;6.88;6.43;;;;;;;11.40;100.00;99958.78;5055712;28;20068;-87
2023/07/16 05:08:18;;;;;;;7.90;7.43;;;;;;;11.48;100.00;99979.31;5072836;28;20028;-89
2023/07/16 05:10:47;;;;;;;7.85;7.38;;;;;;;11.43;100.00;99979.06;5057496;28;20032;-93
2023/07/16 05:13:12;;;;;;;7.40;6.97;;;;;;;11.47;100.00;99979.53;5058300;28;20036;-87
2023/07/16 05:15:43;;;;;;;8.18;7.72;;;;;;;11.47;100.00;99980.34;5076443;28;20044;-88
2023/07/16 05:18:09;;;;;;;8.57;8.05;;;;;;;11.48;100.00;99994.63;5075294;28;20078;-87
2023/07/16 05:20:34;;;;;;;9.43;8.88;;;;;;;11.48;100.00;99997.34;5056033;28;20101;-88
2023/07/16 05:23:05;;;;;;;11.02;10.38;;;;;;;11.41;100.00;99976.59;5055213;28;20036;-88
2023/07/16 05:25:33;;;;;;;9.85;9.27;;;;;;;11.47;100.00;99998.38;5038775;28;20043;-86
2023/07/16 05:28:02;;;;;;;11.45;10.80;;;;;;;11.47;100.00;99995.69;5056683;28;20399;-85
2023/07/16 05:30:30;;;;;;;10.32;9.77;;;;;;;11.48;100.00;99998.16;5072289;28;20029;-92
2023/07/16 05:33:01;;;;;;;7.85;7.43;;;;;;;11.53;100.00;100005.63;5073035;28;20469;-86
2023/07/16 05:35:29;;;;;;;10.45;9.82;;;;;;;11.53;100.00;100001.06;5039918;28;20064;-89
2023/07/16 05:37:57;;;;;;;8.68;8.20;;;;;;;11.66;100.00;100008.38;5071214;28;20032;-87
2023/07/16 05:40:23;;;;;;;8.77;8.30;;;;;;;11.75;100.00;100009.88;5072208;28;20481;-86
2023/07/16 05:42:53;;;;;;;9.07;8.60;;;;;;;11.85;100.00;100021.13;5072387;28;20111;-89
2023/07/16 05:45:24;;;;;;;6.80;6.43;;;;;;;11.87;100.00;100008.28;5071210;28;20410;-90
2023/07/16 05:47:49;;;;;;;6.18;5.88;;;;;;;11.97;100.00;100020.56;5073719;28;20032;-89
2023/07/16 05:50:17;;;;;;;7.57;7.18;;;;;;;12.03;100.00;100022.41;5071609;28;20538;-86
2023/07/16 05:52:43;;;;;;;17.95;16.85;;;;;;;12.14;100.00;100029.09;5038768;28;20461;-86
2023/07/16 05:55:11;;;;;;;16.80;15.73;;;;;;;12.19;100.00;100022.03;5034364;28;20067;-90
2023/07/16 05:57:37;;;;;;;14.98;14.07;;;;;;;12.29;100.00;100022.47;5036855;28;20040;-88
2023/07/16 06:00:04;;;;;;;14.07;13.23;;;;;;;12.52;100.00;100032.06;5059045;28;20033;-88
2023/07/16 06:02:30;;;;;;;10.20;9.55;;;;;;;12.79;100.00;100032.88;5075877;28;20025;-88
2023/07/16 06:04:58;;;;;;;20.83;19.50;;;;;;;13.17;100.00;100041.13;5038865;28;20029;-87
2023/07/16 06:07:27;;;;;;;10.40;9.80;;;;;;;14.22;100.00;100034.75;5039137;28;20489;-89
2023/07/16 06:09:52;;;;;;;14.32;13.48;;;;;;;15.47;100.00;100034.72;5069585;28;20123;-92
2023/07/16 06:12:24;;;;;;;11.80;11.07;;;;;;;16.12;100.00;100031.47;5076445;28;20108;-89
2023/07/16 06:14:52;;;;;;;10.27;9.70;;;;;;;15.23;100.00;100022.91;5046341;28;20039;-89
2023/07/16 06:17:18;;;;;;;6.93;6.53;;;;;;;14.92;100.00;100038.22;5054183;28;20036;-88
2023/07/16 06:19:50;;;;;;;6.90;6.53;;;;;;;14.51;100.00;100041.44;5064329;28;20056;-89
2023/07/16 06:22:16;;;;;;;6.35;5.88;;;;;;;14.62;100.00;100038.03;5058452;28;20071;-92
2023/07/16 06:24:45;;;;;;;7.45;7.00;;;;;;;14.53;100.00;100044.78;5073452;28;20020;-94
2023/07/16 06:27:16;;;;;;;11.32;10.55;;;;;;;14.48;100.00;100036.47;5075604;28;20039;-91
2023/07/16 06:29:43;;;;;;;5.60;5.28;;;;;;;14.57;100.00;100043.28;5042470;28;20041;-86
2023/07/16 06:32:09;;;;;;;6.22;5.80;;;;;;;16.40;100.00;100038.16;5076120;28;20036;-88
2023/07/16 06:34:34;;;;;;;3.90;3.70;;;;;;;17.54;100.00;100038.72;5059309;28;20047;-91
2023/07/16 06:37:00;;;;;;;4.68;4.38;;;;;;;18.16;100.00;100029.09;5059870;28;20033;-91
2023/07/16 06:39:26;;;;;;;3.92;3.63;;;;;;;18.53;100.00;100053.97;5075963;28;20036;-91
2023/07/16 06:41:51;;;;;;;3.60;3.30;;;;;;;17.80;100.00;100025.66;5058999;28;20028;-92
2023/07/16 06:44:17;;;;;;;2.92;2.72;;;;;;;17.38;100.00;100049.47;5078634;28;20048;-88
2023/07/16 06:46:42;;;;;;;3.08;2.88;;;;;;;17.55;100.00;100043.09;5081702;28;20028;-86
2023/07/16 06:49:09;;;;;;;3.00;2.80;;;;;;;18.05;100.00;100054.44;5043405;28;20043;-86
2023/07/16 06:51:37;;;;;;;2.53;2.38;;;;;;;18.36;100.00;100053.94;5059256;28;20024;-92
2023/07/16 06:54:05;;;;;;;2.05;1.95;;;;;;;17.45;100.00;100061.06;5075083;28;20482;-93
2023/07/16 06:56:31;;;;;;;2.25;2.15;;;;;;;16.91;100.00;100058.47;5058113;28;20029;-93
2023/07/16 06:58:57;;;;;;;2.47;2.38;;;;;;;16.41;100.00;100064.25;5075211;28;20040;-90
2023/07/16 07:01:27;;;;;;;4.13;3.40;;;;;;;15.73;100.00;100066.16;5074983;28;20032;-88
2023/07/16 07:03:54;;;;;;;3.47;3.28;;;;;;;15.03;100.00;100046.63;5052238;28;20127;-90
2023/07/16 07:06:21;;;;;;;3.90;3.63;;;;;;;14.82;100.00;100054.13;5022007;28;20360;-88
2023/07/16 07:08:47;;;;;;;4.45;4.15;;;;;;;14.87;100.00;100057.00;5025842;28;20064;-90
2023/07/16 07:11:16;;;;;;;4.50;4.13;;;;;;;14.95;100.00;100067.56;5022375;28;20037;-91
2023/07/16 07:13:44;;;;;;;5.65;5.30;;;;;;;15.07;100.00;100053.28;5073061;28;20116;-86
2023/07/16 07:16:12;;;;;;;6.53;6.07;;;;;;;14.97;100.00;100048.38;5046089;28;20032;-87
2023/07/16 07:18:38;;;;;;;6.13;5.72;;;;;;;15.37;100.00;100070.50;5054673;28;20123;-86
2023/07/16 07:21:04;;;;;;;8.00;7.47;;;;;;;17.25;100.00;100080.44;5056624;28;20047;-94
2023/07/16 07:23:33;;;;;;;5.53;5.20;;;;;;;18.08;100.00;100076.56;5041135;28;20107;-89
2023/07/16 07:26:02;;;;;;;7.53;7.07;;;;;;;20.27;100.00;100080.19;5057837;28;20482;-93
2023/07/16 07:28:29;;;;;;;4.80;4.47;;;;;;;21.49;100.00;100070.38;5058507;28;20043;-92
2023/07/16 07:31:00;;;;;;;3.75;3.45;;;;;;;22.85;98.99;100091.34;5057019;28;20064;-93
2023/07/16 07:33:32;;;;;;;3.13;2.58;;;;;;;23.42;98.85;100095.72;5006758;28;20051;-91
2023/07/16 07:35:57;;;;;;;2.25;2.05;;;;;;;22.66;100.00;100093.78;5048349;28;20177;-91
2023/07/16 07:38:28;;;;;;;1.48;1.38;;;;;;;20.44;100.00;100108.25;5074486;28;20484;-92
2023/07/16 07:41:00;;;;;;;2.35;2.15;;;;;;;18.56;100.00;100098.94;5074858;28;20076;-90
2023/07/16 07:43:28;;;;;;;3.88;2.38;;;;;;;17.44;100.00;100103.72;5073717;28;20127;-89
2023/07/16 07:45:53;;;;;;;4.55;2.78;;;;;;;17.06;100.00;100115.84;5071290;28;20494;-89
2023/07/16 07:48:19;;;;;;;7.00;3.38;;;;;;;17.16;100.00;100103.59;5065672;28;20028;-91
2023/07/16 07:50:46;;;;;;;3.72;2.85;;;;;;;17.52;100.00;100102.53;5071964;28;20025;-88
2023/07/16 07:53:14;;;;;;;6.50;3.28;;;;;;;19.08;100.00;100120.59;5039055;28;20028;-91
2023/07/16 07:55:40;;;;;;;10.20;4.28;;;;;;;20.23;100.00;100118.13;5071417;28;20107;-86
2023/07/16 07:58:05;;;;;;;7.55;3.83;;;;;;;22.04;99.92;100117.41;5054976;28;20444;-89
2023/07/16 08:00:31;;;;;;;5.63;4.05;;;;;;;23.03;93.98;100118.22;5039063;28;20058;-89
2023/07/16 08:02:56;;;;;;;9.77;3.45;;;;;;;22.99;90.76;100125.34;5040587;28;20036;-85
2023/07/16 08:05:22;;;;;;;3.83;2.63;;;;;;;22.53;89.67;100135.41;5056659;28;20454;-86
2023/07/16 08:07:48;;;;;;;8.50;3.28;;;;;;;21.87;90.16;100125.00;5075147;28;20032;-88
2023/07/16 08:10:14;;;;;;;21.17;5.68;;;;;;;20.35;93.61;100116.09;5040237;28;20033;-87
2023/07/16 08:12:39;;;;;;;6.90;3.40;;;;;;;20.42;97.60;100124.06;5057718;28;20374;-87
2023/07/16 08:15:07;;;;;;;9.73;3.60;;;;;;;22.52;89.65;100133.75;5057845;28;20043;-87
2023/07/16 08:17:34;;;;;;;12.57;4.47;;;;;;;22.95;85.16;100164.53;5074850;28;20043;-92
2023/07/16 08:19:59;;;;;;;5.18;3.72;;;;;;;22.16;83.95;100119.94;5057266;28;20028;-87
2023/07/16 08:22:25;;;;;;;7.72;3.63;;;;;;;22.15;86.97;100121.03;5056992;28;20039;-93
2023/07/16 08:24:52;;;;;;;7.10;3.08;;;;;;;22.55;81.03;100116.78;5040107;28;20029;-91
2023/07/16 08:27:18;;;;;;;7.07;3.35;;;;;;;22.24;86.55;100118.63;5073532;28;20398;-91
2023/07/16 08:29:44;;;;;;;7.30;3.45;;;;;;;22.73;82.79;100142.84;5056663;28;20477;-87
2023/07/16 08:32:12;;;;;;;8.85;3.63;;;;;;;22.63;86.39;100157.34;5057011;28;20036;-85
2023/07/16 08:34:40;;;;;;;7.35;3.50;;;;;;;23.61;80.63;100158.25;5052880;28;20131;-87
2023/07/16 08:37:05;;;;;;;7.88;3.28;;;;;;;23.69;76.06;100152.19;5069659;28;20041;-89
2023/07/16 08:39:31;;;;;;;5.70;2.80;;;;;;;23.10;77.98;100158.25;5053221;28;20087;-90
2023/07/16 08:41:57;;;;;;;7.32;3.15;;;;;;;21.48;84.20;100136.25;5053149;28;20091;-91
2023/07/16 08:44:23;;;;;;;6.60;3.58;;;;;;;20.25;89.05;100126.06;5053199;28;20037;-85
2023/07/16 08:46:50;;;;;;;4.55;2.85;;;;;;;19.84;89.37;100136.44;5020162;28;20098;-89
2023/07/16 08:49:18;;;;;;;5.95;2.58;;;;;;;19.78;90.90;100132.84;5053089;28;20064;-86
2023/07/16 08:51:46;;;;;;;4.07;2.65;;;;;;;19.38;94.27;100124.88;5036601;28;20126;-89
2023/07/16 08:54:12;;;;;;;4.20;2.80;;;;;;;19.12;96.57;100148.97;5052907;28;20036;-86
2023/07/16 08:56:38;;;;;;;9.35;3.95;;;;;;;20.93;90.97;100154.69;5036524;28;20044;-86
2023/07/16 08:59:03;;;;;;;5.32;3.53;;;;;;;21.58;88.08;100136.34;5052992;28;20090;-88
2023/07/16 09:01:29;;;;;;;4.40;3.35;;;;;;;23.49;80.33;100128.34;5036050;28;20048;-88
2023/07/16 09:03:58;;;;;;;4.90;3.63;;;;;;;24.69;75.95;100147.69;5036504;28;20357;-85
2023/07/16 09:06:24;;;;;;;4.43;3.08;;;;;;;25.32;70.14;100166.22;5036164;28;20427;-86
2023/07/16 09:08:49;;;;;;;3.97;2.38;;;;;;;25.94;67.81;100167.31;5069060;28;20025;-89
2023/07/16 09:11:20;;;;;;;7.22;3.10;;;;;;;26.53;60.40;100165.22;5036160;28;20029;-88
2023/07/16 09:13:46;;;;;;;4.70;3.10;;;;;;;26.72;56.97;100143.16;5037613;28;20036;-87
2023/07/16 09:16:16;;;;;;;5.05;2.65;;;;;;;26.94;52.11;100131.53;5052961;28;20460;-86
2023/07/16 09:18:43;;;;;;;8.10;3.22;;;;;;;27.60;49.88;100177.34;5069769;28;20032;-85
2023/07/16 09:21:09;;;;;;;8.40;3.10;;;;;;;28.15;45.80;100150.91;5069371;28;20532;-86
2023/07/16 09:23:36;;;;;;;5.78;2.50;;;;;;;27.50;45.30;100160.16;5054366;28;20036;-88
2023/07/16 09:26:03;;;;;;;4.88;2.50;;;;;;;26.88;48.55;100171.31;5039192;28;20063;-88
2023/07/16 09:28:33;;;;;;;3.88;2.45;;;;;;;26.34;48.17;100175.38;5055562;28;20364;-88
2023/07/16 09:31:06;;;;;;;6.30;3.10;;;;;;;26.17;46.07;100176.69;5072844;28;20021;-86
2023/07/16 09:33:32;;;;;;;6.38;3.03;;;;;;;27.19;43.02;100178.03;5037604;28;20174;-91
2023/07/16 09:35:58;;;;;;;12.27;6.95;;;;;;;27.92;40.69;100142.53;5067293;28;20063;-89
2023/07/16 09:38:26;;;;;;;18.38;16.60;;;;;;;25.71;42.57;100143.28;5065092;28;20029;-90
2023/07/16 09:40:53;;;;;;;7.82;6.00;;;;;;;23.66;45.52;100150.00;5024349;28;20440;-91
2023/07/16 09:43:18;;;;;;;8.30;5.65;;;;;;;21.85;50.95;100125.25;5039941;28;20025;-91
2023/07/16 09:45:46;;;;;;;7.95;5.07;;;;;;;22.53;53.38;100171.84;5040206;28;20383;-89
2023/07/16 09:48:13;;;;;;;10.73;5.50;;;;;;;24.74;49.58;100176.00;5023619;28;20041;-87
2023/07/16 09:50:44;;;;;;;8.43;6.10;;;;;;;25.81;45.86;100182.56;5055127;28;20035;-89
2023/07/16 09:53:10;;;;;;;8.15;5.40;;;;;;;26.24;43.08;100165.28;5039783;28;20025;-91
2023/07/16 09:55:37;;;;;;;7.65;4.78;;;;;;;26.89;41.60;100193.09;5039535;28;20040;-90
2023/07/16 09:58:08;;;;;;;7.85;4.63;;;;;;;27.88;40.66;100155.31;5023326;28;20095;-90
2023/07/16 10:00:35;;;;;;;6.35;4.55;;;;;;;28.36;38.13;100171.44;5040874;28;20039;-91
2023/07/16 10:03:01;;;;;;;7.82;4.93;;;;;;;27.15;38.84;100192.69;5043087;28;20463;-92
2023/07/16 10:05:28;;;;;;;7.90;5.18;;;;;;;27.25;38.85;100153.13;5060269;28;20039;-85
2023/07/16 10:07:58;;;;;;;9.77;4.60;;;;;;;28.32;38.44;100183.47;5058866;28;20077;-89
2023/07/16 10:10:53;;;;;;;5.33;4.40;;;;;;;29.96;35.49;100172.06;5058834;28;20040;-88
2023/07/16 10:13:23;;;;;;;8.77;4.28;;;;;;;28.94;36.04;100170.72;5040678;28;20541;-89
2023/07/16 10:15:56;;;;;;;6.70;3.35;;;;;;;26.82;39.25;100195.41;5042193;28;20051;-87
2023/07/16 10:18:33;;;;;;;8.70;3.97;;;;;;;25.54;42.20;100176.78;5025654;28;20043;-87
2023/07/16 10:21:05;;;;;;;5.10;3.08;;;;;;;22.98;46.51;100153.88;5058445;28;20025;-86
2023/07/16 10:23:42;;;;;;;4.03;3.22;;;;;;;21.50;50.66;100170.47;5075503;28;20482;-87
2023/07/16 10:26:10;;;;;;;6.43;4.07;;;;;;;20.59;56.00;100178.63;5043522;28;20457;-89
2023/07/16 10:28:37;;;;;;;6.78;3.35;;;;;;;20.11;60.45;100205.59;5075611;28;20111;-86
2023/07/16 10:31:03;;;;;;;6.90;3.78;;;;;;;19.40;69.61;100194.44;5058795;28;20039;-85
2023/07/16 10:33:38;;;;;;;4.72;3.90;;;;;;;18.46;79.36;100154.03;5058957;28;20036;-87
2023/07/16 10:36:06;;;;;;;5.95;4.38;;;;;;;18.63;84.71;100182.16;5043794;28;20048;-88
2023/07/16 10:38:40;;;;;;;4.20;3.70;;;;;;;18.99;85.31;100211.97;5042504;28;20079;-85
2023/07/16 10:41:06;;;;;;;7.90;4.70;;;;;;;18.71;84.62;100189.09;5059282;28;20052;-89
2023/07/16 10:43:32;;;;;;;7.93;4.70;;;;;;;18.35;85.74;100218.31;5074204;28;20060;-89
2023/07/16 10:45:58;;;;;;;7.57;4.22;;;;;;;17.84;90.33;100230.81;5073019;28;20036;-88
2023/07/16 10:48:26;;;;;;;7.97;3.97;;;;;;;17.49;94.49;100203.56;5075378;28;20089;-86
2023/07/16 10:50:54;;;;;;;7.38;6.63;;;;;;;17.56;98.21;100207.00;5074984;28;20033;-93
2023/07/16 10:53:20;;;;;;;7.18;5.97;;;;;;;17.33;97.32;100176.03;5055622;28;20098;-86
2023/07/16 10:55:46;;;;;;;6.05;5.47;;;;;;;17.48;98.20;100200.03;5045591;28;20028;-89
2023/07/16 10:58:12;;;;;;;8.32;7.50;;;;;;;17.47;100.00;100182.06;5074573;28;20085;-86
2023/07/16 11:00:39;;;;;;;7.72;7.07;;;;;;;17.34;100.00;100160.56;5075194;28;20150;-86
2023/07/16 11:03:05;;;;;;;7.28;6.57;;;;;;;17.49;100.00;100158.22;5073765;28;20564;-89
2023/07/16 11:05:31;;;;;;;7.50;6.72;;;;;;;18.24;100.00;100189.25;5058237;28;20531;-88
2023/07/16 11:07:57;;;;;;;6.30;5.18;;;;;;;18.57;100.00;100183.09;5074978;28;20080;-86
2023/07/16 11:10:23;;;;;;;7.07;5.43;;;;;;;18.52;100.00;100185.72;5058321;28;20036;-84
2023/07/16 11:12:52;;;;;;;6.35;4.68;;;;;;;18.46;100.00;100209.28;5075037;28;20111;-91
2023/07/16 11:15:18;;;;;;;5.47;4.05;;;;;;;18.09;100.00;100225.09;5076138;28;20033;-90
2023/07/16 11:17:50;;;;;;;5.00;4.13;;;;;;;17.64;100.00;100198.50;5060279;28;20551;-87
2023/07/16 11:20:15;;;;;;;11.48;10.23;;;;;;;17.67;100.00;100221.66;5074751;28;20028;-89
2023/07/16 11:22:41;;;;;;;5.68;3.72;;;;;;;17.69;100.00;100204.06;5058866;28;20036;-86
2023/07/16 11:25:13;;;;;;;10.25;4.38;;;;;;;18.14;100.00;100206.19;5058409;28;20043;-92